Aviation Digital Data Service (ADDS)

Output produced by TAFs form (1118 UTC 31 July 2015)
found at http://aviationweather.gov/adds/tafs/
 
KRIL 310530Z 3106/0106 11003KT P6SM SKC 
     FM311900 32007KT P6SM FEW120 SCT250 
     FM010300 13005KT P6SM SCT250